Time;durP1;ratioP1;P1;durP2;ratioP2;P2;SDS_P1;SDS_P2;PMS_P1;PMS_P2;Temp;Humidity;BMP_temperature;BMP_pressure;BME280_temperature;BME280_humidity;BME280_pressure;Samples;Min_cycle;Max_cycle;Signal;HPM_P1;HPM_P2
2022/03/27 00:00:40;;;;;;;29.60;21.80;;;;;;;13.09;47.95;99448.72;4915023;29;20032;-50
2022/03/27 00:03:06;;;;;;;31.58;21.45;;;;;;;13.23;47.24;99442.47;4915001;29;20565;-50
2022/03/27 00:05:32;;;;;;;30.98;23.60;;;;;;;13.30;47.10;99440.72;4916223;29;20499;-50
2022/03/27 00:07:58;;;;;;;28.35;22.85;;;;;;;13.20;47.32;99442.88;4916202;29;20051;-50
2022/03/27 00:10:24;;;;;;;55.13;47.38;;;;;;;13.07;47.10;99448.91;4916050;29;20020;-50
2022/03/27 00:12:50;;;;;;;45.00;37.97;;;;;;;12.87;48.25;99446.19;4915248;29;20032;-50
2022/03/27 00:15:16;;;;;;;63.90;47.22;;;;;;;12.78;48.37;99450.03;4914829;29;20051;-49
2022/03/27 00:17:41;;;;;;;75.28;60.40;;;;;;;12.88;48.24;99450.47;4916077;29;20186;-50
2022/03/27 00:20:12;;;;;;;42.45;32.90;;;;;;;12.76;48.40;99446.78;4915969;29;20028;-50
2022/03/27 00:22:39;;;;;;;37.22;25.85;;;;;;;12.67;48.92;99447.94;4916019;29;20032;-50
2022/03/27 00:25:06;;;;;;;32.38;22.73;;;;;;;12.74;48.38;99454.06;4919369;29;20040;-49
2022/03/27 00:27:33;;;;;;;36.38;23.55;;;;;;;12.79;47.99;99456.91;4915878;29;20048;-50
2022/03/27 00:29:59;;;;;;;32.03;24.00;;;;;;;12.52;48.64;99456.78;4914595;29;20025;-50
2022/03/27 00:32:25;;;;;;;35.28;22.30;;;;;;;12.41;49.13;99454.66;4915840;29;20394;-49
2022/03/27 00:34:51;;;;;;;30.40;22.48;;;;;;;12.47;48.69;99459.16;4914544;29;20020;-51
2022/03/27 00:37:17;;;;;;;27.85;22.42;;;;;;;12.58;48.53;99457.81;4914554;29;20087;-50
2022/03/27 00:39:43;;;;;;;28.70;21.50;;;;;;;12.62;48.54;99455.63;4916027;29;20039;-50
2022/03/27 00:42:09;;;;;;;32.63;22.98;;;;;;;12.54;48.46;99453.94;4930260;29;20035;-50
2022/03/27 00:44:38;;;;;;;31.73;23.95;;;;;;;12.57;48.51;99464.88;4915740;29;20483;-50
2022/03/27 00:47:07;;;;;;;40.15;24.35;;;;;;;12.51;48.29;99468.28;4915670;29;20024;-50
2022/03/27 00:49:34;;;;;;;62.15;48.58;;;;;;;12.38;48.91;99469.03;4915721;29;20099;-50
2022/03/27 00:52:00;;;;;;;37.40;26.30;;;;;;;12.37;49.04;99467.41;4915601;29;20028;-50
2022/03/27 00:54:25;;;;;;;32.90;23.98;;;;;;;12.37;49.37;99463.94;4915694;29;20495;-49
2022/03/27 00:56:51;;;;;;;31.02;23.85;;;;;;;12.42;49.10;99469.47;4915625;29;20024;-49
2022/03/27 00:59:17;;;;;;;43.88;24.27;;;;;;;12.45;48.68;99468.25;4915589;29;20513;-50
2022/03/27 01:01:44;;;;;;;32.85;21.98;;;;;;;12.40;48.67;99474.13;4915801;29;20087;-50
2022/03/27 01:04:10;;;;;;;34.28;23.05;;;;;;;12.28;48.95;99476.47;4915603;29;20107;-50
2022/03/27 01:06:41;;;;;;;34.78;23.88;;;;;;;12.18;48.89;99474.16;4914209;29;20032;-50
2022/03/27 01:12:13;;;;;;;35.97;22.10;;;;;;;11.58;50.32;99476.22;4915399;29;20055;-50
2022/03/27 01:14:39;;;;;;;31.42;22.67;;;;;;;11.77;50.51;99469.56;4915475;29;20066;-50
2022/03/27 01:17:10;;;;;;;32.90;24.42;;;;;;;12.12;49.69;99472.28;4914138;29;20056;-50
2022/03/27 01:19:43;;;;;;;26.70;20.08;;;;;;;12.24;48.94;99472.59;4915477;29;20439;-49
2022/03/27 01:22:09;;;;;;;31.40;20.77;;;;;;;12.26;49.30;99473.22;4915417;29;20036;-50
2022/03/27 01:24:35;;;;;;;35.53;20.88;;;;;;;12.28;49.13;99467.75;4916782;29;20044;-49
2022/03/27 01:27:01;;;;;;;28.85;22.83;;;;;;;12.46;48.74;99467.28;4919021;29;20111;-50
2022/03/27 01:29:27;;;;;;;31.15;20.70;;;;;;;12.58;48.35;99473.63;4919034;29;20024;-50
2022/03/27 01:31:53;;;;;;;32.85;23.38;;;;;;;12.61;47.98;99465.31;4918870;29;20020;-50
2022/03/27 01:34:19;;;;;;;30.38;21.50;;;;;;;12.48;47.89;99471.31;4917702;29;20068;-50
2022/03/27 01:36:45;;;;;;;28.67;22.02;;;;;;;12.29;48.54;99469.38;4917560;29;20028;-50
2022/03/27 01:39:13;;;;;;;29.45;21.67;;;;;;;12.15;48.84;99466.66;4918910;29;20036;-50
2022/03/27 01:41:41;;;;;;;34.40;22.08;;;;;;;12.17;48.80;99466.44;4917517;29;20028;-50
2022/03/27 01:44:09;;;;;;;28.77;21.33;;;;;;;12.05;48.89;99473.22;4918788;29;20058;-50
2022/03/27 01:46:37;;;;;;;29.55;22.30;;;;;;;11.77;49.43;99476.59;4918673;29;20025;-50
2022/03/27 01:49:07;;;;;;;33.22;22.33;;;;;;;11.58;49.82;99470.97;4917382;29;20043;-50
2022/03/27 01:51:33;;;;;;;30.02;22.35;;;;;;;11.50;49.96;99472.91;4918562;29;20133;-49
2022/03/27 01:54:00;;;;;;;32.08;23.15;;;;;;;11.50;50.44;99470.28;4917301;29;20087;-49
2022/03/27 01:56:26;;;;;;;30.10;21.90;;;;;;;11.40;50.24;99471.41;4917308;29;20901;-50
2022/03/27 01:58:53;;;;;;;32.17;24.33;;;;;;;11.36;50.79;99472.78;4918522;29;20067;-49
2022/03/27 02:01:21;;;;;;;29.98;21.80;;;;;;;11.37;51.01;99473.59;4918467;29;20084;-50
2022/03/27 02:03:48;;;;;;;29.58;21.50;;;;;;;11.49;50.64;99476.53;4918403;29;20032;-50
2022/03/27 02:06:15;;;;;;;35.42;22.55;;;;;;;11.51;50.52;99471.91;4918360;29;20092;-50
2022/03/27 02:08:42;;;;;;;30.63;21.50;;;;;;;11.57;50.37;99477.25;4918356;29;20051;-49
2022/03/27 02:11:09;;;;;;;30.95;20.88;;;;;;;11.62;50.15;99470.63;4917194;29;20032;-49
2022/03/27 02:13:36;;;;;;;29.55;22.02;;;;;;;11.49;50.53;99473.91;4918264;29;20084;-50
2022/03/27 02:16:03;;;;;;;32.05;22.00;;;;;;;11.32;50.83;99475.97;4916863;29;20028;-50
2022/03/27 02:18:30;;;;;;;30.10;20.85;;;;;;;11.31;50.94;99474.34;4918202;29;20098;-50
2022/03/27 02:20:57;;;;;;;29.83;21.00;;;;;;;11.42;50.80;99475.66;4918166;29;20046;-50
2022/03/27 02:23:24;;;;;;;28.42;21.20;;;;;;;11.36;50.51;99471.97;4916812;29;20042;-49
2022/03/27 02:25:51;;;;;;;28.75;21.52;;;;;;;11.29;50.70;99477.16;4917869;29;20135;-50
2022/03/27 02:28:17;;;;;;;30.92;23.40;;;;;;;11.20;50.77;99473.00;4916752;29;20032;-50
2022/03/27 02:30:43;;;;;;;40.20;23.23;;;;;;;10.97;51.30;99466.06;4917863;29;20514;-50
2022/03/27 02:33:09;;;;;;;28.70;22.50;;;;;;;10.98;51.21;99475.56;4917965;29;20103;-50
2022/03/27 02:35:35;;;;;;;33.10;22.65;;;;;;;10.90;51.13;99474.84;4915512;29;20035;-48
2022/03/27 02:38:05;;;;;;;32.30;21.73;;;;;;;10.85;51.36;99472.78;4916586;29;20028;-49
2022/03/27 02:40:39;;;;;;;31.27;22.20;;;;;;;10.94;51.34;99484.00;4917843;29;20028;-50
2022/03/27 02:43:05;;;;;;;33.63;22.63;;;;;;;10.83;51.32;99487.09;4916455;29;20512;-50
2022/03/27 02:45:31;;;;;;;32.38;24.88;;;;;;;10.62;51.94;99478.13;4917724;29;20102;-49
2022/03/27 02:47:57;;;;;;;32.88;22.45;;;;;;;10.40;52.93;99490.31;4916404;29;20093;-50
2022/03/27 02:50:24;;;;;;;30.15;23.42;;;;;;;10.25;53.66;99490.28;4917529;29;20118;-49
2022/03/27 02:52:50;;;;;;;36.55;23.75;;;;;;;10.13;53.69;99489.06;4916268;29;20465;-49
2022/03/27 02:55:16;;;;;;;28.98;21.17;;;;;;;10.10;54.04;99487.63;4916246;29;20035;-50
2022/03/27 02:57:42;;;;;;;31.63;21.42;;;;;;;10.25;54.63;99500.78;4916148;29;20032;-50
2022/03/27 03:00:09;;;;;;;28.20;22.50;;;;;;;10.28;53.69;99494.34;4917397;29;20451;-49
2022/03/27 03:02:35;;;;;;;28.77;21.42;;;;;;;10.11;53.84;99496.31;4916078;29;20450;-49
2022/03/27 03:05:02;;;;;;;32.38;23.70;;;;;;;10.07;54.37;99495.03;4916182;29;20031;-50
2022/03/27 03:07:28;;;;;;;28.10;22.50;;;;;;;10.11;54.26;99491.06;4917396;29;20483;-49
2022/03/27 03:09:54;;;;;;;31.02;23.25;;;;;;;10.10;54.38;99492.88;4917176;29;20036;-50
2022/03/27 03:12:21;;;;;;;31.23;22.77;;;;;;;9.87;54.33;99497.31;4915951;29;20040;-49
2022/03/27 03:14:47;;;;;;;30.10;21.98;;;;;;;9.91;54.89;99496.78;4915854;29;20063;-50
2022/03/27 03:17:13;;;;;;;31.58;21.25;;;;;;;10.05;53.82;99499.63;4917121;29;20111;-50
2022/03/27 03:19:39;;;;;;;33.03;20.75;;;;;;;10.15;53.37;99493.16;4915788;29;20028;-50
2022/03/27 03:22:07;;;;;;;32.95;22.27;;;;;;;10.23;53.68;99496.69;4915709;29;20066;-50
2022/03/27 03:24:34;;;;;;;31.70;22.60;;;;;;;10.31;53.37;99496.66;4916772;29;20609;-49
2022/03/27 03:27:00;;;;;;;32.55;21.85;;;;;;;10.37;53.02;99494.13;4916953;29;20491;-50
2022/03/27 03:29:26;;;;;;;31.95;20.88;;;;;;;10.29;53.30;99493.38;4916894;29;20072;-50
2022/03/27 03:31:51;;;;;;;28.55;20.63;;;;;;;10.29;54.12;99498.63;4916759;29;20036;-50
2022/03/27 03:34:17;;;;;;;28.35;20.08;;;;;;;10.46;53.38;99497.47;4916815;29;20024;-50
2022/03/27 03:36:44;;;;;;;48.63;36.20;;;;;;;10.52;53.00;99504.66;4916772;29;20036;-50
2022/03/27 03:39:10;;;;;;;28.42;20.98;;;;;;;10.64;53.24;99499.75;4915388;29;20036;-50
2022/03/27 03:41:36;;;;;;;30.80;19.65;;;;;;;10.69;52.46;99507.91;4916634;29;20028;-50
2022/03/27 03:44:03;;;;;;;27.30;21.13;;;;;;;10.62;52.56;99500.94;4916707;29;20051;-49
2022/03/27 03:46:28;;;;;;;30.75;19.77;;;;;;;10.49;52.59;99510.25;4916387;29;20507;-50
2022/03/27 03:48:54;;;;;;;28.55;21.05;;;;;;;10.27;52.93;99500.59;4916545;29;20025;-49
2022/03/27 03:51:21;;;;;;;30.02;22.83;;;;;;;10.19;53.78;99504.91;4915146;29;20036;-50
2022/03/27 03:53:46;;;;;;;30.50;21.80;;;;;;;10.12;53.74;99503.16;4916487;29;20047;-50
2022/03/27 03:56:12;;;;;;;25.40;19.42;;;;;;;10.05;53.78;99512.75;4916417;29;20491;-50
2022/03/27 03:58:38;;;;;;;28.05;23.25;;;;;;;9.85;53.80;99500.13;4915085;29;20114;-50
2022/03/27 04:01:04;;;;;;;30.70;26.30;;;;;;;9.90;54.77;99500.41;4916588;29;20036;-49
2022/03/27 04:03:31;;;;;;;31.35;21.48;;;;;;;9.98;54.61;99499.53;4916281;29;20097;-49
2022/03/27 04:05:57;;;;;;;30.58;19.40;;;;;;;10.10;53.99;99500.75;4914978;29;20111;-50
2022/03/27 04:08:23;;;;;;;30.83;21.02;;;;;;;10.19;54.47;99497.03;4916255;29;20039;-49
2022/03/27 04:10:48;;;;;;;36.50;22.25;;;;;;;10.13;53.50;99504.81;4916361;29;20024;-49
2022/03/27 04:13:15;;;;;;;28.92;20.95;;;;;;;10.22;54.26;99503.72;4916193;29;20420;-49
2022/03/27 04:15:41;;;;;;;27.20;20.40;;;;;;;10.55;53.49;99499.03;4916126;29;20398;-49
2022/03/27 04:18:07;;;;;;;24.10;21.02;;;;;;;10.77;52.88;99496.53;4916084;29;20096;-49
2022/03/27 04:20:37;;;;;;;28.27;20.52;;;;;;;10.94;52.42;99505.81;4916013;29;20039;-49
2022/03/27 04:23:03;;;;;;;25.70;18.45;;;;;;;10.91;52.29;99497.50;4916309;29;20079;-50
2022/03/27 04:25:29;;;;;;;27.08;19.02;;;;;;;11.03;51.72;99492.59;4915793;29;20059;-49
2022/03/27 04:27:55;;;;;;;27.55;20.25;;;;;;;11.04;50.99;99494.22;4915951;29;20395;-50
2022/03/27 04:30:21;;;;;;;26.90;18.98;;;;;;;10.73;51.42;99503.13;4915868;29;20024;-50
2022/03/27 04:32:47;;;;;;;24.38;19.75;;;;;;;10.39;52.00;99496.56;4915894;29;20023;-49
2022/03/27 04:35:14;;;;;;;25.05;20.52;;;;;;;10.05;53.03;99507.50;4914511;29;20115;-49
2022/03/27 04:37:44;;;;;;;26.55;21.23;;;;;;;9.91;53.22;99515.13;4914504;29;20024;-50
2022/03/27 04:40:13;;;;;;;27.02;18.55;;;;;;;9.70;53.81;99509.72;4914491;29;20144;-49
2022/03/27 04:42:42;;;;;;;38.72;19.52;;;;;;;9.53;54.59;99506.38;4915733;29;20032;-50
2022/03/27 04:45:09;;;;;;;28.92;18.63;;;;;;;9.45;54.60;99515.09;4914388;29;20025;-49
2022/03/27 04:47:35;;;;;;;26.65;19.67;;;;;;;9.49;55.32;99524.25;4915665;29;20491;-50
2022/03/27 04:50:02;;;;;;;25.88;19.23;;;;;;;9.67;54.50;99524.00;4914314;29;20043;-49
2022/03/27 04:52:28;;;;;;;29.38;19.45;;;;;;;9.79;54.17;99521.78;4915620;29;20444;-49
2022/03/27 04:54:53;;;;;;;27.90;19.67;;;;;;;9.78;54.53;99530.66;4915648;29;20032;-49
2022/03/27 04:57:21;;;;;;;26.83;19.38;;;;;;;9.49;54.67;99526.88;4914699;29;20024;-49
2022/03/27 04:59:48;;;;;;;28.80;21.67;;;;;;;9.38;54.85;99535.13;4921602;29;20376;-50
2022/03/27 05:02:14;;;;;;;25.45;20.20;;;;;;;9.13;55.47;99532.59;4920576;29;20024;-50
2022/03/27 05:04:41;;;;;;;29.58;20.23;;;;;;;8.98;55.36;99537.75;4921828;29;20020;-50
2022/03/27 05:07:07;;;;;;;26.15;19.52;;;;;;;8.97;55.83;99537.91;4921848;29;20034;-50
2022/03/27 05:09:33;;;;;;;32.10;20.50;;;;;;;9.03;56.29;99549.50;4921770;29;20083;-49
2022/03/27 05:11:59;;;;;;;29.63;20.30;;;;;;;9.11;55.86;99552.09;4921692;29;20555;-49
2022/03/27 05:14:25;;;;;;;26.45;18.17;;;;;;;9.14;55.71;99547.34;4921758;29;20115;-50
2022/03/27 05:16:50;;;;;;;28.92;19.23;;;;;;;9.12;55.50;99551.13;4920636;29;20446;-50
2022/03/27 05:19:16;;;;;;;28.98;19.02;;;;;;;8.99;55.37;99562.13;4921730;29;20492;-49
2022/03/27 05:21:42;;;;;;;27.25;19.40;;;;;;;8.98;55.89;99553.47;4920400;29;20032;-50
2022/03/27 05:24:09;;;;;;;26.40;17.42;;;;;;;9.05;55.44;99560.63;4920141;29;20103;-50
2022/03/27 05:26:36;;;;;;;20.73;16.25;;;;;;;9.12;55.20;99556.38;4921614;29;20024;-49
2022/03/27 05:29:08;;;;;;;23.10;18.85;;;;;;;9.08;55.27;99555.88;4920398;29;20050;-50
2022/03/27 05:31:34;;;;;;;31.38;21.85;;;;;;;9.09;55.35;99560.13;4921593;29;20546;-49
2022/03/27 05:34:00;;;;;;;24.02;19.88;;;;;;;9.06;55.33;99572.75;4921626;29;20394;-49
2022/03/27 05:36:26;;;;;;;25.35;19.60;;;;;;;8.86;55.72;99572.31;4920301;29;20028;-50
2022/03/27 05:38:52;;;;;;;23.73;16.77;;;;;;;8.87;56.24;99569.50;4921589;29;20028;-50
2022/03/27 05:41:18;;;;;;;32.35;24.52;;;;;;;9.02;55.78;99576.69;4921560;29;20111;-49
2022/03/27 05:43:44;;;;;;;25.23;18.60;;;;;;;9.16;55.66;99568.94;4921654;29;20115;-49
2022/03/27 05:46:10;;;;;;;27.23;18.05;;;;;;;9.32;55.33;99583.78;4921528;29;20031;-49
2022/03/27 05:48:36;;;;;;;29.20;17.88;;;;;;;9.51;55.10;99582.53;4921527;29;20099;-49
2022/03/27 05:51:02;;;;;;;27.55;18.00;;;;;;;9.67;54.07;99578.22;4920063;29;20038;-50
2022/03/27 05:53:29;;;;;;;20.83;17.15;;;;;;;9.73;54.30;99578.34;4920142;29;20127;-49
2022/03/27 05:55:55;;;;;;;22.58;17.52;;;;;;;9.92;53.63;99578.88;4921386;29;20421;-50
2022/03/27 05:58:21;;;;;;;24.58;16.38;;;;;;;10.11;53.05;99588.09;4921425;29;20024;-50
2022/03/27 06:00:47;;;;;;;24.77;16.27;;;;;;;10.02;52.46;99589.16;4920069;29;20071;-50
2022/03/27 06:03:12;;;;;;;20.13;15.55;;;;;;;10.20;52.64;99587.88;4921907;29;20111;-50
2022/03/27 06:05:38;;;;;;;23.35;17.50;;;;;;;10.62;51.66;99596.25;4920078;29;20540;-49
2022/03/27 06:08:04;;;;;;;33.67;25.25;;;;;;;10.84;51.05;99601.63;4920024;29;20055;-50
2022/03/27 06:10:32;;;;;;;22.90;17.30;;;;;;;11.05;50.38;99598.31;4918936;29;20062;-49
2022/03/27 06:13:00;;;;;;;28.23;16.55;;;;;;;11.17;49.83;99599.50;4917072;29;20514;-50
2022/03/27 06:15:27;;;;;;;21.25;16.55;;;;;;;11.24;49.40;99607.44;4916947;29;20059;-49
2022/03/27 06:17:54;;;;;;;26.30;18.70;;;;;;;11.38;48.99;99604.81;4916938;29;20585;-50
2022/03/27 06:20:25;;;;;;;25.73;16.48;;;;;;;11.48;48.70;99604.53;4918162;29;20107;-50
2022/03/27 06:22:52;;;;;;;29.67;19.23;;;;;;;11.57;49.42;99610.53;4918209;29;20031;-50
2022/03/27 06:25:21;;;;;;;22.48;16.55;;;;;;;11.87;48.55;99610.44;4916589;29;20052;-48
2022/03/27 06:27:49;;;;;;;22.27;15.65;;;;;;;12.12;47.35;99609.13;4916755;29;20028;-50
2022/03/27 06:30:17;;;;;;;18.02;15.05;;;;;;;12.37;46.44;99609.56;4916601;29;20454;-50
2022/03/27 06:32:43;;;;;;;21.13;15.93;;;;;;;12.54;46.08;99607.47;4917999;29;20067;-50
2022/03/27 06:35:11;;;;;;;22.23;16.45;;;;;;;12.98;45.92;99613.47;4917931;29;20443;-50
2022/03/27 06:37:38;;;;;;;24.63;17.00;;;;;;;13.42;44.89;99614.97;4917893;29;20099;-49
2022/03/27 06:40:05;;;;;;;31.00;18.63;;;;;;;13.92;44.17;99620.00;4916541;29;20482;-49
2022/03/27 06:42:31;;;;;;;27.58;22.35;;;;;;;14.37;42.25;99615.84;4917743;29;20107;-49
2022/03/27 06:44:57;;;;;;;23.08;17.55;;;;;;;14.72;41.70;99615.66;4916476;29;20127;-50
2022/03/27 06:47:27;;;;;;;23.20;17.23;;;;;;;15.05;41.00;99613.97;4917611;29;20517;-50
2022/03/27 06:49:56;;;;;;;24.35;16.55;;;;;;;15.44;39.87;99617.56;4916371;29;20040;-50
2022/03/27 06:52:22;;;;;;;23.92;16.27;;;;;;;15.81;39.39;99610.69;4917519;29;20031;-51
2022/03/27 06:54:49;;;;;;;22.05;16.23;;;;;;;16.02;39.04;99621.97;4917563;29;20024;-50
2022/03/27 06:57:15;;;;;;;19.17;16.08;;;;;;;16.45;37.91;99623.97;4917502;29;20525;-50
2022/03/27 07:05:14;;;;;;;21.20;15.55;;;;;;;16.92;36.80;99633.19;4917686;29;20042;-50
2022/03/27 07:07:40;;;;;;;17.48;15.35;;;;;;;17.36;36.22;99631.31;4916080;29;20016;-50
2022/03/27 07:10:07;;;;;;;18.80;15.60;;;;;;;17.85;35.61;99630.53;4915932;29;20408;-50
2022/03/27 07:12:33;;;;;;;20.58;16.63;;;;;;;18.45;35.00;99627.84;4917263;29;20028;-50
2022/03/27 07:14:58;;;;;;;19.30;14.85;;;;;;;18.80;33.82;99623.63;4915948;29;20030;-50
2022/03/27 07:17:25;;;;;;;21.63;15.40;;;;;;;18.99;33.48;99625.13;4915818;29;20025;-50
2022/03/27 07:19:52;;;;;;;20.92;15.68;;;;;;;19.23;33.23;99620.56;4917114;29;20088;-51
2022/03/27 07:22:18;;;;;;;19.38;16.00;;;;;;;19.39;32.56;99629.69;4899603;29;20059;-50
2022/03/27 07:24:45;;;;;;;18.42;15.85;;;;;;;19.12;32.97;99627.53;4916822;29;20052;-50
2022/03/27 07:27:12;;;;;;;22.15;16.67;;;;;;;19.17;33.06;99629.50;4916943;29;20064;-51
2022/03/27 07:29:38;;;;;;;23.58;15.18;;;;;;;18.74;33.80;99635.97;4915657;29;20121;-51
2022/03/27 07:32:06;;;;;;;25.83;16.55;;;;;;;18.59;33.89;99635.59;4916812;29;20027;-51
2022/03/27 07:34:33;;;;;;;20.15;17.42;;;;;;;17.95;34.25;99638.78;4915555;29;20035;-50
2022/03/27 07:36:59;;;;;;;36.88;32.50;;;;;;;16.69;36.43;99638.25;4917048;29;20029;-50
2022/03/27 07:39:25;;;;;;;33.33;28.52;;;;;;;15.69;37.81;99641.47;4916714;29;20047;-50
2022/03/27 07:41:50;;;;;;;25.95;19.00;;;;;;;15.45;39.06;99645.63;4915498;29;20032;-50
2022/03/27 07:44:16;;;;;;;30.65;23.38;;;;;;;15.27;39.15;99646.28;4915678;29;20096;-50
2022/03/27 07:46:42;;;;;;;22.65;17.88;;;;;;;14.66;40.73;99647.38;4916558;29;20032;-50
2022/03/27 07:49:09;;;;;;;23.40;17.13;;;;;;;14.48;41.67;99648.75;4916597;29;20525;-50
2022/03/27 07:51:35;;;;;;;24.73;16.88;;;;;;;15.75;40.00;99649.44;4916449;29;20115;-50
2022/03/27 07:54:02;;;;;;;20.75;15.73;;;;;;;17.39;37.56;99645.97;4915164;29;20111;-51
2022/03/27 07:56:29;;;;;;;18.60;14.15;;;;;;;18.79;34.87;99649.41;4915142;29;20033;-50
2022/03/27 07:58:56;;;;;;;17.70;14.70;;;;;;;18.95;33.85;99648.72;4916481;29;20024;-50
2022/03/27 08:01:23;;;;;;;20.48;14.63;;;;;;;19.44;33.29;99650.31;4915051;29;20123;-51
2022/03/27 08:03:49;;;;;;;19.15;14.48;;;;;;;19.29;32.38;99646.25;4916358;29;20020;-51
2022/03/27 08:06:16;;;;;;;24.33;15.93;;;;;;;18.95;33.25;99648.72;4916289;29;20495;-50
2022/03/27 08:08:42;;;;;;;20.35;14.60;;;;;;;19.69;32.79;99650.00;4916301;29;20028;-50
2022/03/27 08:11:09;;;;;;;26.80;14.75;;;;;;;19.66;32.35;99650.47;4916403;29;20024;-51
2022/03/27 08:13:36;;;;;;;18.95;13.88;;;;;;;19.94;32.64;99663.84;4916212;29;20032;-51
2022/03/27 08:16:01;;;;;;;21.25;15.00;;;;;;;20.87;32.36;99654.78;4914786;29;20111;-51
2022/03/27 08:18:27;;;;;;;18.25;13.43;;;;;;;21.44;30.21;99659.84;4916146;29;20070;-51
2022/03/27 08:20:53;;;;;;;21.52;13.68;;;;;;;21.80;29.39;99654.13;4914741;29;20039;-51
2022/03/27 08:23:19;;;;;;;21.42;14.45;;;;;;;22.27;28.90;99654.38;4916024;29;20016;-50
2022/03/27 08:28:29;;;;;;;28.10;14.88;;;;;;;24.10;26.42;99642.28;4916058;29;20164;-51
2022/03/27 08:30:54;;;;;;;20.17;14.55;;;;;;;24.96;25.64;99641.75;4914531;29;20059;-50
2022/03/27 08:33:20;;;;;;;21.27;13.63;;;;;;;25.55;24.60;99637.56;4915110;29;20492;-50
2022/03/27 08:35:46;;;;;;;17.55;13.30;;;;;;;26.32;23.77;99640.63;4915818;29;20107;-50
2022/03/27 08:38:13;;;;;;;20.73;13.40;;;;;;;27.36;22.47;99635.88;4915868;29;20028;-50
2022/03/27 08:40:42;;;;;;;20.35;14.10;;;;;;;28.12;21.60;99644.03;4915799;29;20024;-50
2022/03/27 08:43:13;;;;;;;20.23;13.60;;;;;;;28.72;21.58;99640.66;4914762;29;20028;-50
2022/03/27 08:45:40;;;;;;;22.55;13.77;;;;;;;29.35;20.98;99640.00;4914431;29;20028;-50
2022/03/27 08:48:06;;;;;;;18.30;14.23;;;;;;;29.84;20.17;99643.88;4914404;29;20118;-50
2022/03/27 08:50:38;;;;;;;28.42;25.63;;;;;;;30.06;19.80;99645.81;4914311;29;20020;-51
2022/03/27 08:53:07;;;;;;;25.95;21.25;;;;;;;30.43;19.16;99643.06;4915683;29;20032;-50
2022/03/27 08:55:46;;;;;;;15.55;13.57;;;;;;;30.94;18.79;99646.38;4914324;29;20422;-50
2022/03/27 08:58:13;;;;;;;15.15;13.52;;;;;;;31.13;18.45;99646.13;4915700;29;20043;-50
2022/03/27 09:00:40;;;;;;;15.15;13.18;;;;;;;31.47;18.38;99642.72;4914248;29;20055;-50
2022/03/27 09:03:07;;;;;;;21.92;14.48;;;;;;;31.52;17.83;99645.31;4914290;29;20043;-51
2022/03/27 09:05:37;;;;;;;15.07;12.68;;;;;;;31.40;18.20;99643.16;4915540;29;20503;-51
2022/03/27 09:08:09;;;;;;;18.70;14.05;;;;;;;31.72;18.16;99643.88;4915564;29;20040;-50
2022/03/27 09:10:36;;;;;;;16.95;12.95;;;;;;;31.69;18.23;99647.22;4915388;29;20491;-50
2022/03/27 09:13:03;;;;;;;17.08;13.70;;;;;;;31.55;18.28;99650.09;4914200;29;20083;-49
2022/03/27 09:15:29;;;;;;;13.07;11.75;;;;;;;31.63;17.66;99646.59;4914197;29;20598;-50
2022/03/27 09:17:59;;;;;;;15.35;11.82;;;;;;;32.01;17.05;99640.56;4914154;29;20376;-51
2022/03/27 09:20:45;;;;;;;17.88;11.75;;;;;;;32.29;16.96;99645.66;4914152;29;20040;-51
2022/03/27 09:23:31;;;;;;;18.63;13.77;;;;;;;32.15;17.22;99648.53;4915453;29;20043;-50
2022/03/27 09:25:59;;;;;;;13.75;12.13;;;;;;;31.97;17.64;99647.72;4915386;29;20047;-51
2022/03/27 09:28:42;;;;;;;15.23;12.00;;;;;;;31.61;17.52;99642.59;4914281;29;20135;-51
2022/03/27 09:31:14;;;;;;;13.55;10.55;;;;;;;31.56;17.52;99648.97;4913983;29;20047;-52
2022/03/27 09:33:50;;;;;;;13.23;11.82;;;;;;;31.73;17.28;99647.41;4915310;29;20028;-51
2022/03/27 09:36:29;;;;;;;14.25;10.55;;;;;;;32.12;16.83;99642.97;4915292;29;20513;-51
2022/03/27 09:39:03;;;;;;;23.45;17.95;;;;;;;32.13;16.20;99644.56;4915250;29;20043;-49
2022/03/27 09:41:53;;;;;;;19.10;11.40;;;;;;;32.12;16.78;99635.63;4913942;29;20032;-48
2022/03/27 09:44:22;;;;;;;12.52;11.25;;;;;;;32.27;16.30;99639.75;4916179;29;20448;-49
2022/03/27 09:47:10;;;;;;;14.23;10.82;;;;;;;32.44;16.32;99633.50;4918778;29;20442;-49
2022/03/27 09:49:37;;;;;;;13.77;10.57;;;;;;;32.80;15.77;99635.00;4918740;29;20577;-48
2022/03/27 09:52:10;;;;;;;32.45;21.17;;;;;;;33.39;14.82;99634.25;4918624;29;20111;-49
2022/03/27 09:54:55;;;;;;;19.33;12.93;;;;;;;34.52;14.61;99629.81;4918780;29;20115;-50
2022/03/27 09:57:25;;;;;;;18.60;12.65;;;;;;;35.06;13.79;99628.88;4918665;29;20095;-51
2022/03/27 09:59:52;;;;;;;16.33;11.57;;;;;;;35.09;13.83;99625.44;4918593;29;20079;-51
2022/03/27 10:02:22;;;;;;;14.32;11.77;;;;;;;35.24;13.93;99630.25;4918579;29;20446;-51
2022/03/27 10:05:15;;;;;;;15.18;12.35;;;;;;;35.34;14.34;99624.31;4917244;29;20039;-51
2022/03/27 10:07:51;;;;;;;16.50;12.38;;;;;;;35.10;13.60;99625.13;4914180;29;20578;-52
2022/03/27 10:10:22;;;;;;;20.02;12.50;;;;;;;35.52;13.55;99618.63;4918309;29;20499;-51
2022/03/27 10:12:50;;;;;;;20.42;12.43;;;;;;;35.43;13.49;99616.00;4918386;29;20024;-51
2022/03/27 10:15:30;;;;;;;15.05;12.63;;;;;;;35.46;13.27;99606.34;4918290;29;20032;-51
2022/03/27 10:18:05;;;;;;;15.35;12.40;;;;;;;35.64;13.35;99606.84;4917014;29;20032;-51
2022/03/27 10:20:34;;;;;;;15.25;12.57;;;;;;;35.79;13.09;99611.59;4918264;29;20160;-51
2022/03/27 10:23:10;;;;;;;15.48;12.60;;;;;;;35.55;13.44;99604.25;4918199;29;20558;-51
2022/03/27 10:25:36;;;;;;;15.45;12.32;;;;;;;35.34;13.46;99616.13;4917997;29;20046;-52
2022/03/27 10:28:04;;;;;;;18.23;14.23;;;;;;;35.48;13.69;99602.13;4918123;29;20040;-52
2022/03/27 10:30:31;;;;;;;17.45;14.55;;;;;;;36.07;13.28;99597.16;4918029;29;20076;-51
2022/03/27 10:32:57;;;;;;;17.45;13.65;;;;;;;36.49;13.15;99602.19;4918051;29;20020;-52
2022/03/27 10:35:39;;;;;;;16.15;11.68;;;;;;;35.45;13.27;99594.59;4916690;29;20035;-50
2022/03/27 10:38:15;;;;;;;16.40;13.63;;;;;;;34.58;14.33;99602.00;4916690;29;20107;-51
2022/03/27 10:41:11;;;;;;;19.15;15.38;;;;;;;34.01;13.90;99598.09;4917943;29;20028;-51
2022/03/27 10:43:57;;;;;;;17.58;14.77;;;;;;;33.56;13.88;99596.03;4917859;29;20115;-50
2022/03/27 10:46:24;;;;;;;20.50;14.82;;;;;;;33.20;14.63;99589.25;4916550;29;20071;-51
2022/03/27 10:48:53;;;;;;;18.85;13.50;;;;;;;33.00;14.03;99589.94;4917755;29;20053;-51
2022/03/27 10:51:25;;;;;;;17.75;15.90;;;;;;;32.82;14.85;99584.63;4916300;29;20387;-51
2022/03/27 10:54:12;;;;;;;13.10;11.45;;;;;;;33.40;14.61;99575.97;4917650;29;20020;-51
2022/03/27 10:56:44;;;;;;;19.98;12.02;;;;;;;33.96;14.09;99576.50;4916812;29;20036;-51
2022/03/27 10:59:24;;;;;;;15.18;11.75;;;;;;;34.54;13.39;99583.94;4917568;29;20064;-51
2022/03/27 11:01:51;;;;;;;14.63;12.70;;;;;;;34.99;13.20;99580.31;4916244;29;20421;-51
2022/03/27 11:04:37;;;;;;;21.27;14.18;;;;;;;35.00;12.83;99579.19;4917473;29;20399;-52
2022/03/27 11:07:15;;;;;;;26.95;21.20;;;;;;;34.87;13.45;99563.97;4917392;29;20067;-52
2022/03/27 11:09:45;;;;;;;19.77;14.77;;;;;;;34.81;13.32;99564.22;4917332;29;20028;-52
2022/03/27 11:12:24;;;;;;;16.08;13.10;;;;;;;34.51;13.59;99568.25;4915962;29;20107;-51
2022/03/27 11:14:52;;;;;;;18.45;13.20;;;;;;;34.39;13.10;99569.84;4917230;29;20021;-51
2022/03/27 11:17:35;;;;;;;14.43;12.80;;;;;;;34.75;13.98;99564.75;4917185;29;20039;-52
2022/03/27 11:20:07;;;;;;;19.63;17.23;;;;;;;34.65;13.38;99557.81;4915852;29;20028;-52
2022/03/27 11:22:53;;;;;;;18.67;14.05;;;;;;;34.08;13.98;99555.88;4917173;29;20032;-52
2022/03/27 11:25:46;;;;;;;16.35;12.05;;;;;;;33.87;13.40;99554.00;4915666;29;20048;-51
2022/03/27 11:28:20;;;;;;;17.13;11.90;;;;;;;33.56;13.35;99549.75;4911485;29;20134;-51
2022/03/27 11:30:55;;;;;;;40.10;36.40;;;;;;;33.20;14.16;99550.34;4917034;29;20028;-51
2022/03/27 11:33:22;;;;;;;43.53;39.72;;;;;;;32.08;14.79;99555.91;4916935;29;20498;-52
2022/03/27 11:36:14;;;;;;;22.42;16.40;;;;;;;31.22;15.13;99554.75;4916850;29;20498;-51